Pot Creek, New Mexico
Current Conditions -  °F | °C
As of 5:55 PM on Friday 19 Dec 2014 (Local Time) from KSKX Reporting Station
Clear Clear  
Wind Chill: 19°   Ceiling: Unl
Heat Index: 27°   Visibility: 10mi
Dew Point: 18°   Wind: 7mph
Humidity: 69%   Direction: 240°WSW
Pressure: 30.15"   Gusts: NA
Location:  36.4227°N, 105.509°W
Report Text: KSKX 200055Z AUTO 24006KT 10SM CLR M03/M08 A3015 RMK AO1
Loading
Personal Weather Stations






























Interactive Weather Map New forecast layout! Learn more

10-Day Weather Forecast

Advertisements
Track Severe Weather on mobile